Time,TemperatureF,DewpointF,PressureIn,WindDirection,WindDirectionDegrees,WindSpeedMPH,WindSpeedGustMPH,Humidity,HourlyPrecipIn,Conditions,Clouds,dailyrainin,SoftwareType,DateUTC
2013-02-22 00:00:00,23.7,21.6,29.96,East,84,15.6,23.0,90,0.00,,,0.00,SSEC-RIG,2013-02-22 06:00:00,
2013-02-22 00:05:00,23.4,21.1,29.95,ENE,78,15.3,21.2,90,0.00,,,0.00,SSEC-RIG,2013-02-22 06:05:00,
2013-02-22 00:10:00,23.4,21.4,29.95,East,82,16.4,21.0,91,0.00,,,0.00,SSEC-RIG,2013-02-22 06:10:00,
2013-02-22 00:15:00,23.3,21.4,29.95,ENE,78,16.7,21.8,91,0.00,,,0.00,SSEC-RIG,2013-02-22 06:15:00,
2013-02-22 00:20:00,23.3,21.2,29.94,ENE,76,14.5,21.6,91,0.00,,,0.00,SSEC-RIG,2013-02-22 06:20:00,
2013-02-22 00:25:00,23.3,21.3,29.93,East,79,15.9,24.8,91,0.00,,,0.00,SSEC-RIG,2013-02-22 06:25:00,
2013-02-22 00:30:00,23.3,21.4,29.93,East,82,17.2,24.9,91,0.00,,,0.00,SSEC-RIG,2013-02-22 06:30:00,
2013-02-22 00:35:00,23.2,21.3,29.92,East,80,18.9,23.8,91,0.00,,,0.00,SSEC-RIG,2013-02-22 06:35:00,
2013-02-22 00:40:00,23.3,21.4,29.92,East,79,16.9,21.7,91,0.00,,,0.00,SSEC-RIG,2013-02-22 06:40:00,
2013-02-22 00:45:00,23.1,21.3,29.92,ENE,76,15.3,21.8,92,0.00,,,0.00,SSEC-RIG,2013-02-22 06:45:00,
2013-02-22 00:50:00,23.1,21.3,29.92,ENE,77,16.2,21.3,92,0.00,,,0.00,SSEC-RIG,2013-02-22 06:50:00,
2013-02-22 00:55:00,23.1,21.2,29.91,East,80,18.1,24.5,91,0.00,,,0.00,SSEC-RIG,2013-02-22 06:55:00,
2013-02-22 01:00:00,23.2,21.3,29.91,East,81,18.3,24.9,91,0.00,,,0.00,SSEC-RIG,2013-02-22 07:00:00,
2013-02-22 01:05:00,23.1,21.1,29.90,East,82,20.7,27.5,91,0.00,,,0.00,SSEC-RIG,2013-02-22 07:05:00,
2013-02-22 01:10:00,23.2,21.1,29.89,ENE,78,15.8,24.1,91,0.00,,,0.00,SSEC-RIG,2013-02-22 07:10:00,
2013-02-22 01:20:00,23.1,21.1,29.89,ENE,78,16.9,23.1,91,0.00,,,0.00,SSEC-RIG,2013-02-22 07:20:00,
2013-02-22 01:25:00,23.2,21.2,29.89,East,81,17.2,24.9,91,0.00,,,0.00,SSEC-RIG,2013-02-22 07:25:00,
2013-02-22 01:30:00,23.2,21.2,29.89,East,83,18.0,26.0,91,0.00,,,0.00,SSEC-RIG,2013-02-22 07:30:00,
2013-02-22 01:35:00,23.3,21.4,29.89,East,83,17.2,23.6,91,0.00,,,0.00,SSEC-RIG,2013-02-22 07:35:00,
2013-02-22 01:40:00,23.3,21.4,29.89,East,84,16.8,24.5,91,0.00,,,0.00,SSEC-RIG,2013-02-22 07:40:00,
2013-02-22 01:45:00,23.3,21.4,29.89,East,86,16.1,23.9,91,0.00,,,0.00,SSEC-RIG,2013-02-22 07:45:00,
2013-02-22 01:50:00,23.3,21.4,29.88,East,89,20.7,26.4,91,0.00,,,0.00,SSEC-RIG,2013-02-22 07:50:00,
2013-02-22 01:55:00,23.3,21.3,29.89,East,93,15.7,24.7,91,0.00,,,0.00,SSEC-RIG,2013-02-22 07:55:00,
2013-02-22 02:00:00,23.4,21.3,29.89,East,92,17.4,22.1,90,0.00,,,0.00,SSEC-RIG,2013-02-22 08:00:00,
2013-02-22 02:05:00,23.3,21.2,29.89,East,93,13.9,20.3,90,0.00,,,0.00,SSEC-RIG,2013-02-22 08:05:00,
2013-02-22 02:10:00,23.3,21.2,29.89,East,95,15.9,21.5,91,0.00,,,0.00,SSEC-RIG,2013-02-22 08:10:00,
2013-02-22 02:15:00,23.2,21.4,29.88,East,92,14.1,17.8,92,0.00,,,0.00,SSEC-RIG,2013-02-22 08:15:00,
2013-02-22 02:20:00,23.1,21.3,29.88,East,93,12.4,19.0,92,0.00,,,0.00,SSEC-RIG,2013-02-22 08:20:00,
2013-02-22 02:25:00,23.2,21.5,29.88,East,90,14.8,19.3,92,0.00,,,0.00,SSEC-RIG,2013-02-22 08:25:00,
2013-02-22 02:30:00,23.1,21.6,29.88,East,92,12.7,18.4,93,0.00,,,0.00,SSEC-RIG,2013-02-22 08:30:00,
2013-02-22 02:35:00,23.1,21.4,29.88,East,97,13.6,20.2,92,0.00,,,0.00,SSEC-RIG,2013-02-22 08:35:00,
2013-02-22 02:40:00,23.1,21.5,29.87,East,95,12.4,18.1,92,0.00,,,0.00,SSEC-RIG,2013-02-22 08:40:00,
2013-02-22 02:45:00,23.1,21.5,29.87,East,87,13.9,20.2,92,0.00,,,0.00,SSEC-RIG,2013-02-22 08:45:00,
2013-02-22 02:55:00,23.2,21.7,29.86,East,90,12.4,16.1,93,0.00,,,0.00,SSEC-RIG,2013-02-22 08:55:00,
2013-02-22 03:00:00,23.1,21.5,29.86,East,96,11.0,-999.0,92,0.00,,,0.00,SSEC-RIG,2013-02-22 09:00:00,
2013-02-22 03:05:00,23.2,21.7,29.86,East,95,11.4,17.6,93,0.00,,,0.00,SSEC-RIG,2013-02-22 09:05:00,
2013-02-22 03:15:00,23.1,21.5,29.86,East,98,11.8,16.4,93,0.00,,,0.00,SSEC-RIG,2013-02-22 09:15:00,
2013-02-22 03:20:00,23.2,21.8,29.86,East,97,11.2,16.5,93,0.00,,,0.00,SSEC-RIG,2013-02-22 09:20:00,
2013-02-22 03:25:00,23.2,21.8,29.86,East,100,12.7,17.0,93,0.00,,,0.00,SSEC-RIG,2013-02-22 09:25:00,
2013-02-22 03:30:00,23.2,21.7,29.85,East,97,11.3,-999.0,93,0.00,,,0.00,SSEC-RIG,2013-02-22 09:30:00,
2013-02-22 03:40:00,23.1,21.8,29.85,East,98,11.5,-999.0,94,0.00,,,0.00,SSEC-RIG,2013-02-22 09:40:00,
2013-02-22 03:45:00,23.2,21.9,29.85,East,99,12.3,17.1,94,0.00,,,0.00,SSEC-RIG,2013-02-22 09:45:00,
2013-02-22 03:55:00,23.5,22.3,29.84,East,97,11.9,-999.0,94,0.00,,,0.00,SSEC-RIG,2013-02-22 09:55:00,
2013-02-22 04:05:00,23.5,22.0,29.84,East,96,11.5,-999.0,93,0.00,,,0.00,SSEC-RIG,2013-02-22 10:05:00,
2013-02-22 04:10:00,23.4,21.8,29.83,East,96,11.9,-999.0,92,0.00,,,0.00,SSEC-RIG,2013-02-22 10:10:00,
2013-02-22 04:15:00,23.3,21.7,29.83,East,97,12.0,-999.0,92,0.00,,,0.00,SSEC-RIG,2013-02-22 10:15:00,
2013-02-22 04:20:00,23.2,21.5,29.83,East,95,10.8,-999.0,92,0.00,,,0.00,SSEC-RIG,2013-02-22 10:20:00,
2013-02-22 04:25:00,23.3,21.5,29.83,East,100,12.4,16.4,91,0.00,,,0.00,SSEC-RIG,2013-02-22 10:25:00,
2013-02-22 04:30:00,23.5,21.7,29.83,East,93,11.1,17.1,92,0.00,,,0.00,SSEC-RIG,2013-02-22 10:30:00,
2013-02-22 04:35:00,23.5,21.7,29.83,East,97,10.4,-999.0,92,0.00,,,0.00,SSEC-RIG,2013-02-22 10:35:00,
2013-02-22 04:45:00,23.6,21.8,29.83,East,98,12.1,-999.0,92,0.00,,,0.00,SSEC-RIG,2013-02-22 10:45:00,
2013-02-22 04:50:00,23.5,21.6,29.82,ESE,106,9.5,-999.0,91,0.00,,,0.00,SSEC-RIG,2013-02-22 10:50:00,
2013-02-22 05:00:00,23.5,21.5,29.82,ESE,112,8.8,-999.0,91,0.00,,,0.00,SSEC-RIG,2013-02-22 11:00:00,
2013-02-22 05:05:00,23.6,21.5,29.82,ESE,106,10.6,16.4,91,0.00,,,0.00,SSEC-RIG,2013-02-22 11:05:00,
2013-02-22 05:10:00,23.7,21.7,29.82,ESE,102,11.3,-999.0,91,0.00,,,0.00,SSEC-RIG,2013-02-22 11:10:00,
2013-02-22 05:15:00,23.5,21.6,29.81,ESE,102,10.9,16.4,91,0.00,,,0.00,SSEC-RIG,2013-02-22 11:15:00,
2013-02-22 05:20:00,23.7,21.7,29.81,ESE,108,10.5,-999.0,91,0.00,,,0.00,SSEC-RIG,2013-02-22 11:20:00,
2013-02-22 05:25:00,23.8,22.0,29.81,ESE,103,10.5,-999.0,91,0.00,,,0.00,SSEC-RIG,2013-02-22 11:25:00,
2013-02-22 05:35:00,23.7,21.8,29.81,ESE,104,8.8,-999.0,91,0.00,,,0.00,SSEC-RIG,2013-02-22 11:35:00,
2013-02-22 05:40:00,23.8,21.8,29.80,ESE,103,10.7,-999.0,91,0.00,,,0.00,SSEC-RIG,2013-02-22 11:40:00,
2013-02-22 05:50:00,23.9,21.8,29.81,ESE,103,8.5,-999.0,91,0.00,,,0.00,SSEC-RIG,2013-02-22 11:50:00,
2013-02-22 06:00:00,23.9,21.9,29.80,ESE,109,11.8,-999.0,91,0.00,,,0.00,SSEC-RIG,2013-02-22 12:00:00,
2013-02-22 06:10:00,24.0,21.8,29.79,ESE,113,11.8,-999.0,90,0.00,,,0.00,SSEC-RIG,2013-02-22 12:10:00,
2013-02-22 06:15:00,24.1,21.6,29.79,ESE,117,10.9,17.8,89,0.00,,,0.00,SSEC-RIG,2013-02-22 12:15:00,
2013-02-22 06:25:00,24.3,21.6,29.79,ESE,115,12.7,-999.0,88,0.00,,,0.00,SSEC-RIG,2013-02-22 12:25:00,
2013-02-22 06:30:00,24.4,21.7,29.79,ESE,117,10.2,-999.0,88,0.00,,,0.00,SSEC-RIG,2013-02-22 12:30:00,
2013-02-22 06:35:00,24.5,21.7,29.79,ESE,120,11.8,-999.0,88,0.00,,,0.00,SSEC-RIG,2013-02-22 12:35:00,
2013-02-22 06:40:00,24.6,21.7,29.79,SE,125,13.2,16.4,88,0.00,,,0.00,SSEC-RIG,2013-02-22 12:40:00,
2013-02-22 06:45:00,24.6,21.9,29.79,ESE,122,11.1,16.9,88,0.00,,,0.00,SSEC-RIG,2013-02-22 12:45:00,
2013-02-22 06:50:00,24.5,21.9,29.79,ESE,121,12.8,-999.0,88,0.00,,,0.00,SSEC-RIG,2013-02-22 12:50:00,
2013-02-22 06:55:00,24.6,22.0,29.79,ESE,120,13.1,-999.0,89,0.00,,,0.00,SSEC-RIG,2013-02-22 12:55:00,
2013-02-22 07:00:00,24.5,22.1,29.79,ESE,123,12.6,-999.0,89,0.00,,,0.00,SSEC-RIG,2013-02-22 13:00:00,
2013-02-22 07:05:00,24.6,22.3,29.78,SE,125,12.1,-999.0,90,0.00,,,0.00,SSEC-RIG,2013-02-22 13:05:00,
2013-02-22 07:10:00,24.6,22.5,29.78,ESE,120,12.2,16.0,90,0.00,,,0.00,SSEC-RIG,2013-02-22 13:10:00,
2013-02-22 07:15:00,24.6,22.6,29.78,SE,124,12.5,-999.0,91,0.00,,,0.00,SSEC-RIG,2013-02-22 13:15:00,
2013-02-22 07:20:00,24.6,22.7,29.78,ESE,122,12.3,-999.0,91,0.00,,,0.00,SSEC-RIG,2013-02-22 13:20:00,
2013-02-22 07:25:00,24.7,22.8,29.78,ESE,122,11.8,-999.0,92,0.00,,,0.00,SSEC-RIG,2013-02-22 13:25:00,
2013-02-22 07:30:00,24.6,22.9,29.77,ESE,119,12.0,-999.0,92,0.00,,,0.00,SSEC-RIG,2013-02-22 13:30:00,
2013-02-22 07:35:00,24.7,23.0,29.77,ESE,119,10.3,-999.0,92,0.00,,,0.00,SSEC-RIG,2013-02-22 13:35:00,
2013-02-22 07:40:00,24.6,23.0,29.77,ESE,122,11.0,-999.0,92,0.00,,,0.00,SSEC-RIG,2013-02-22 13:40:00,
2013-02-22 07:45:00,24.6,23.0,29.77,ESE,122,12.4,-999.0,93,0.00,,,0.00,SSEC-RIG,2013-02-22 13:45:00,
2013-02-22 07:50:00,24.6,23.1,29.77,SE,125,11.7,-999.0,93,0.00,,,0.00,SSEC-RIG,2013-02-22 13:50:00,
2013-02-22 07:55:00,24.7,23.1,29.77,ESE,120,11.2,-999.0,93,0.00,,,0.00,SSEC-RIG,2013-02-22 13:55:00,
2013-02-22 08:00:00,24.6,23.0,29.77,SE,126,11.8,-999.0,93,0.00,,,0.00,SSEC-RIG,2013-02-22 14:00:00,
2013-02-22 08:05:00,24.6,23.2,29.77,SE,127,9.3,-999.0,93,0.00,,,0.00,SSEC-RIG,2013-02-22 14:05:00,
2013-02-22 08:10:00,24.7,23.1,29.77,SE,128,10.7,-999.0,93,0.00,,,0.00,SSEC-RIG,2013-02-22 14:10:00,
2013-02-22 08:15:00,24.6,23.1,29.77,SE,129,10.3,-999.0,93,0.00,,,0.00,SSEC-RIG,2013-02-22 14:15:00,
2013-02-22 08:20:00,24.6,23.1,29.77,SE,133,10.9,-999.0,92,0.00,,,0.00,SSEC-RIG,2013-02-22 14:20:00,
2013-02-22 08:25:00,24.7,23.1,29.77,SE,137,9.0,-999.0,93,0.00,,,0.00,SSEC-RIG,2013-02-22 14:25:00,
2013-02-22 08:30:00,24.7,23.1,29.77,SE,137,9.6,-999.0,92,0.00,,,0.00,SSEC-RIG,2013-02-22 14:30:00,
2013-02-22 08:35:00,24.8,23.1,29.77,SE,136,9.2,-999.0,92,0.00,,,0.00,SSEC-RIG,2013-02-22 14:35:00,
2013-02-22 08:40:00,24.8,23.0,29.77,SE,137,9.8,-999.0,92,0.00,,,0.00,SSEC-RIG,2013-02-22 14:40:00,
2013-02-22 08:45:00,24.8,23.0,29.77,SE,135,9.5,-999.0,92,0.00,,,0.00,SSEC-RIG,2013-02-22 14:45:00,
2013-02-22 08:50:00,24.8,23.0,29.77,SE,137,8.4,-999.0,92,0.00,,,0.00,SSEC-RIG,2013-02-22 14:50:00,
2013-02-22 09:00:00,24.8,23.0,29.77,SE,132,8.9,-999.0,92,0.00,,,0.00,SSEC-RIG,2013-02-22 15:00:00,
2013-02-22 09:05:00,24.9,23.1,29.76,SE,126,8.5,-999.0,92,0.00,,,0.00,SSEC-RIG,2013-02-22 15:05:00,
2013-02-22 09:10:00,24.8,23.0,29.77,SE,136,9.1,-999.0,92,0.00,,,0.00,SSEC-RIG,2013-02-22 15:10:00,
2013-02-22 09:15:00,24.8,23.1,29.77,SE,140,8.0,-999.0,92,0.00,,,0.00,SSEC-RIG,2013-02-22 15:15:00,
2013-02-22 09:20:00,24.8,23.0,29.77,SE,133,11.0,-999.0,92,0.00,,,0.00,SSEC-RIG,2013-02-22 15:20:00,
2013-02-22 09:25:00,24.8,23.0,29.77,SE,138,9.3,-999.0,92,0.00,,,0.00,SSEC-RIG,2013-02-22 15:25:00,
2013-02-22 09:30:00,24.8,23.1,29.76,SE,139,8.8,-999.0,92,0.00,,,0.00,SSEC-RIG,2013-02-22 15:30:00,
2013-02-22 09:35:00,24.9,23.2,29.76,SE,140,7.8,-999.0,92,0.00,,,0.00,SSEC-RIG,2013-02-22 15:35:00,
2013-02-22 09:40:00,24.9,23.3,29.77,SE,139,6.3,-999.0,92,0.00,,,0.00,SSEC-RIG,2013-02-22 15:40:00,
2013-02-22 09:50:00,24.9,23.3,29.76,SE,128,8.3,-999.0,93,0.00,,,0.00,SSEC-RIG,2013-02-22 15:50:00,
2013-02-22 09:55:00,24.9,23.4,29.77,SE,134,7.0,-999.0,93,0.00,,,0.00,SSEC-RIG,2013-02-22 15:55:00,
2013-02-22 10:00:00,24.9,23.2,29.76,SE,129,9.0,-999.0,92,0.00,,,0.00,SSEC-RIG,2013-02-22 16:00:00,
2013-02-22 10:05:00,25.0,23.3,29.76,SE,126,7.6,-999.0,92,0.00,,,0.00,SSEC-RIG,2013-02-22 16:05:00,
2013-02-22 10:10:00,25.1,23.3,29.77,SE,129,6.4,-999.0,92,0.00,,,0.00,SSEC-RIG,2013-02-22 16:10:00,
2013-02-22 10:15:00,24.9,23.3,29.77,SE,128,6.0,-999.0,92,0.00,,,0.00,SSEC-RIG,2013-02-22 16:15:00,
2013-02-22 10:20:00,25.0,23.4,29.77,SE,129,5.4,-999.0,93,0.00,,,0.00,SSEC-RIG,2013-02-22 16:20:00,
2013-02-22 10:30:00,24.9,23.2,29.77,SE,129,6.1,-999.0,92,0.00,,,0.00,SSEC-RIG,2013-02-22 16:30:00,
2013-02-22 10:35:00,25.0,23.4,29.77,SE,132,5.3,-999.0,92,0.00,,,0.00,SSEC-RIG,2013-02-22 16:35:00,
2013-02-22 10:40:00,25.0,23.3,29.77,SE,135,5.9,-999.0,92,0.00,,,0.00,SSEC-RIG,2013-02-22 16:40:00,
2013-02-22 10:45:00,25.1,23.4,29.77,SE,140,5.0,-999.0,92,0.00,,,0.00,SSEC-RIG,2013-02-22 16:45:00,
2013-02-22 10:50:00,25.2,23.3,29.77,SE,137,4.9,-999.0,91,0.00,,,0.00,SSEC-RIG,2013-02-22 16:50:00,
2013-02-22 10:55:00,25.3,23.2,29.77,SE,142,5.6,-999.0,91,0.00,,,0.00,SSEC-RIG,2013-02-22 16:55:00,
2013-02-22 11:00:00,25.3,23.0,29.77,SE,140,6.3,-999.0,90,0.00,,,0.00,SSEC-RIG,2013-02-22 17:00:00,
2013-02-22 11:05:00,25.7,23.4,29.77,SSE,157,4.8,-999.0,90,0.00,,,0.00,SSEC-RIG,2013-02-22 17:05:00,
2013-02-22 11:10:00,25.5,22.9,29.77,SSE,155,6.7,-999.0,89,0.00,,,0.00,SSEC-RIG,2013-02-22 17:10:00,
2013-02-22 11:15:00,25.6,22.7,29.77,SSE,152,6.3,-999.0,88,0.00,,,0.00,SSEC-RIG,2013-02-22 17:15:00,
2013-02-22 11:20:00,25.5,22.7,29.77,SE,137,5.6,-999.0,88,0.00,,,0.00,SSEC-RIG,2013-02-22 17:20:00,
2013-02-22 11:25:00,25.6,23.0,29.77,SE,131,5.1,-999.0,88,0.00,,,0.00,SSEC-RIG,2013-02-22 17:25:00,
2013-02-22 11:30:00,25.5,22.7,29.77,SE,126,6.6,-999.0,88,0.00,,,0.00,SSEC-RIG,2013-02-22 17:30:00,
2013-02-22 11:35:00,25.5,22.8,29.77,SE,126,6.4,-999.0,88,0.00,,,0.00,SSEC-RIG,2013-02-22 17:35:00,
2013-02-22 11:40:00,25.6,22.8,29.77,ESE,123,6.3,-999.0,88,0.00,,,0.00,SSEC-RIG,2013-02-22 17:40:00,
2013-02-22 11:45:00,25.8,23.1,29.76,ESE,122,5.0,-999.0,89,0.00,,,0.00,SSEC-RIG,2013-02-22 17:45:00,
2013-02-22 11:50:00,25.6,23.1,29.76,SE,128,5.5,-999.0,89,0.00,,,0.00,SSEC-RIG,2013-02-22 17:50:00,
2013-02-22 11:55:00,25.5,23.0,29.76,SE,129,5.6,-999.0,89,0.00,,,0.00,SSEC-RIG,2013-02-22 17:55:00,
2013-02-22 12:00:00,25.6,23.1,29.76,SE,128,5.7,-999.0,89,0.00,,,0.00,SSEC-RIG,2013-02-22 18:00:00,
2013-02-22 12:05:00,25.7,23.0,29.76,ESE,123,5.5,-999.0,88,0.00,,,0.00,SSEC-RIG,2013-02-22 18:05:00,
2013-02-22 12:10:00,25.9,22.9,29.75,ESE,118,6.4,-999.0,87,0.00,,,0.00,SSEC-RIG,2013-02-22 18:10:00,
2013-02-22 12:15:00,25.8,22.8,29.75,SE,127,5.8,-999.0,87,0.00,,,0.00,SSEC-RIG,2013-02-22 18:15:00,
2013-02-22 12:20:00,25.9,22.9,29.75,SE,125,5.7,-999.0,87,0.00,,,0.00,SSEC-RIG,2013-02-22 18:20:00,
2013-02-22 12:25:00,25.9,22.8,29.75,SE,124,5.7,-999.0,87,0.00,,,0.00,SSEC-RIG,2013-02-22 18:25:00,
2013-02-22 12:30:00,26.2,23.3,29.75,ESE,117,5.0,-999.0,88,0.00,,,0.00,SSEC-RIG,2013-02-22 18:30:00,
2013-02-22 12:35:00,26.0,23.1,29.74,SE,127,5.4,-999.0,87,0.00,,,0.00,SSEC-RIG,2013-02-22 18:35:00,
2013-02-22 12:40:00,25.8,22.7,29.74,SE,124,6.1,-999.0,87,0.00,,,0.00,SSEC-RIG,2013-02-22 18:40:00,
2013-02-22 12:45:00,26.2,23.3,29.74,SE,129,5.3,-999.0,87,0.00,,,0.00,SSEC-RIG,2013-02-22 18:45:00,
2013-02-22 12:55:00,26.4,23.1,29.73,ESE,116,6.4,-999.0,86,0.00,,,0.00,SSEC-RIG,2013-02-22 18:55:00,
2013-02-22 13:00:00,26.4,23.1,29.73,ESE,118,6.5,-999.0,86,0.00,,,0.00,SSEC-RIG,2013-02-22 19:00:00,
2013-02-22 13:05:00,26.2,22.9,29.73,SE,128,6.0,-999.0,86,0.00,,,0.00,SSEC-RIG,2013-02-22 19:05:00,
2013-02-22 13:10:00,26.5,23.0,29.73,SE,128,6.0,-999.0,85,0.00,,,0.00,SSEC-RIG,2013-02-22 19:10:00,
2013-02-22 13:15:00,26.4,23.0,29.73,SE,137,5.7,-999.0,86,0.00,,,0.00,SSEC-RIG,2013-02-22 19:15:00,
2013-02-22 13:20:00,26.5,23.0,29.73,SE,144,5.3,-999.0,86,0.00,,,0.00,SSEC-RIG,2013-02-22 19:20:00,
2013-02-22 13:25:00,26.6,23.3,29.74,SSE,155,5.4,-999.0,86,0.00,,,0.00,SSEC-RIG,2013-02-22 19:25:00,
2013-02-22 13:30:00,27.3,23.8,29.74,South,186,4.2,-999.0,85,0.00,,,0.00,SSEC-RIG,2013-02-22 19:30:00,
2013-02-22 13:35:00,27.9,24.0,29.73,SSW,201,2.4,-999.0,84,0.00,,,0.00,SSEC-RIG,2013-02-22 19:35:00,
2013-02-22 13:40:00,27.1,23.0,29.73,WSW,237,3.4,-999.0,83,0.00,,,0.00,SSEC-RIG,2013-02-22 19:40:00,
2013-02-22 13:45:00,27.5,23.1,29.73,SSW,200,3.5,-999.0,82,0.00,,,0.00,SSEC-RIG,2013-02-22 19:45:00,
2013-02-22 13:55:00,27.7,23.4,29.73,SSW,208,4.1,-999.0,82,0.00,,,0.00,SSEC-RIG,2013-02-22 19:55:00,
2013-02-22 14:00:00,27.2,22.9,29.74,SW,230,4.7,-999.0,82,0.00,,,0.00,SSEC-RIG,2013-02-22 20:00:00,
2013-02-22 14:05:00,27.7,23.4,29.74,SW,221,4.2,-999.0,83,0.00,,,0.00,SSEC-RIG,2013-02-22 20:05:00,
2013-02-22 14:10:00,27.5,23.0,29.74,SW,218,7.5,-999.0,82,0.00,,,0.00,SSEC-RIG,2013-02-22 20:10:00,
2013-02-22 14:15:00,27.4,22.6,29.74,SW,220,8.3,-999.0,81,0.00,,,0.00,SSEC-RIG,2013-02-22 20:15:00,
2013-02-22 14:20:00,27.5,22.6,29.75,SW,224,7.4,-999.0,80,0.00,,,0.00,SSEC-RIG,2013-02-22 20:20:00,
2013-02-22 14:25:00,27.5,22.6,29.75,SW,217,8.5,-999.0,81,0.00,,,0.00,SSEC-RIG,2013-02-22 20:25:00,
2013-02-22 14:30:00,27.5,22.9,29.75,SW,231,7.7,-999.0,81,0.00,,,0.00,SSEC-RIG,2013-02-22 20:30:00,
2013-02-22 14:35:00,27.5,22.8,29.75,SW,226,8.9,-999.0,81,0.00,,,0.00,SSEC-RIG,2013-02-22 20:35:00,
2013-02-22 14:40:00,27.6,22.7,29.75,WSW,240,8.6,-999.0,81,0.00,,,0.00,SSEC-RIG,2013-02-22 20:40:00,
2013-02-22 14:50:00,27.6,22.9,29.76,WSW,240,7.7,-999.0,81,0.00,,,0.00,SSEC-RIG,2013-02-22 20:50:00,
2013-02-22 14:55:00,27.5,22.8,29.76,WSW,252,6.7,-999.0,81,0.00,,,0.00,SSEC-RIG,2013-02-22 20:55:00,
2013-02-22 15:00:00,27.6,22.7,29.76,WSW,257,5.7,-999.0,80,0.00,,,0.00,SSEC-RIG,2013-02-22 21:00:00,
2013-02-22 15:05:00,27.6,22.5,29.76,West,261,7.1,-999.0,80,0.00,,,0.00,SSEC-RIG,2013-02-22 21:05:00,
2013-02-22 15:10:00,27.4,22.4,29.75,West,263,7.4,-999.0,80,0.00,,,0.00,SSEC-RIG,2013-02-22 21:10:00,
2013-02-22 15:15:00,27.4,22.4,29.75,West,276,5.9,-999.0,80,0.00,,,0.00,SSEC-RIG,2013-02-22 21:15:00,
2013-02-22 15:20:00,27.3,22.4,29.75,WNW,290,6.3,-999.0,80,0.00,,,0.00,SSEC-RIG,2013-02-22 21:20:00,
2013-02-22 15:25:00,27.4,22.5,29.75,West,277,5.8,-999.0,81,0.00,,,0.00,SSEC-RIG,2013-02-22 21:25:00,
2013-02-22 15:30:00,27.8,22.9,29.75,West,270,4.4,-999.0,81,0.00,,,0.00,SSEC-RIG,2013-02-22 21:30:00,
2013-02-22 15:35:00,27.5,22.5,29.74,WNW,282,5.7,-999.0,80,0.00,,,0.00,SSEC-RIG,2013-02-22 21:35:00,
2013-02-22 15:40:00,27.7,22.7,29.75,West,268,4.9,-999.0,80,0.00,,,0.00,SSEC-RIG,2013-02-22 21:40:00,
2013-02-22 15:45:00,27.6,22.6,29.75,West,271,4.9,-999.0,80,0.00,,,0.00,SSEC-RIG,2013-02-22 21:45:00,
2013-02-22 15:50:00,27.6,22.5,29.75,WNW,284,5.7,-999.0,80,0.00,,,0.00,SSEC-RIG,2013-02-22 21:50:00,
2013-02-22 15:55:00,28.0,22.8,29.75,West,259,4.5,-999.0,80,0.00,,,0.00,SSEC-RIG,2013-02-22 21:55:00,
2013-02-22 16:05:00,27.9,22.5,29.75,WSW,257,6.6,-999.0,79,0.00,,,0.00,SSEC-RIG,2013-02-22 22:05:00,
2013-02-22 16:12:00,27.8,22.4,29.75,WSW,256,5.8,-999.0,79,0.00,,,0.00,SSEC-RIG,2013-02-22 22:12:00,
2013-02-22 16:20:00,27.7,22.2,29.75,WSW,253,6.4,-999.0,79,0.00,,,0.00,SSEC-RIG,2013-02-22 22:20:00,
2013-02-22 16:25:00,27.9,22.3,29.75,West,261,6.2,-999.0,78,0.00,,,0.00,SSEC-RIG,2013-02-22 22:25:00,
2013-02-22 16:30:00,28.0,22.4,29.75,WSW,252,6.6,-999.0,78,0.00,,,0.00,SSEC-RIG,2013-02-22 22:30:00,
2013-02-22 16:40:00,27.9,22.3,29.75,West,267,5.4,-999.0,78,0.00,,,0.00,SSEC-RIG,2013-02-22 22:40:00,
2013-02-22 16:45:00,27.9,22.4,29.75,West,270,4.8,-999.0,79,0.00,,,0.00,SSEC-RIG,2013-02-22 22:45:00,
2013-02-22 16:55:00,27.8,22.5,29.75,West,279,6.4,-999.0,79,0.00,,,0.00,SSEC-RIG,2013-02-22 22:55:00,
2013-02-22 17:00:00,28.0,22.7,29.76,West,280,4.6,-999.0,79,0.00,,,0.00,SSEC-RIG,2013-02-22 23:00:00,
2013-02-22 17:05:00,28.0,22.6,29.76,West,264,5.9,-999.0,79,0.00,,,0.00,SSEC-RIG,2013-02-22 23:05:00,
2013-02-22 17:10:00,28.0,22.7,29.76,WSW,256,6.1,-999.0,79,0.00,,,0.00,SSEC-RIG,2013-02-22 23:10:00,
2013-02-22 17:15:00,27.9,22.6,29.76,West,259,7.1,-999.0,79,0.00,,,0.00,SSEC-RIG,2013-02-22 23:15:00,
2013-02-22 17:20:00,27.8,22.6,29.76,West,261,7.8,-999.0,80,0.00,,,0.00,SSEC-RIG,2013-02-22 23:20:00,
2013-02-22 17:25:00,27.8,22.7,29.76,West,265,7.3,-999.0,80,0.00,,,0.00,SSEC-RIG,2013-02-22 23:25:00,
2013-02-22 17:30:00,28.0,22.9,29.77,West,262,5.2,-999.0,80,0.00,,,0.00,SSEC-RIG,2013-02-22 23:30:00,
2013-02-22 17:35:00,27.8,22.8,29.77,West,260,6.3,-999.0,80,0.00,,,0.00,SSEC-RIG,2013-02-22 23:35:00,
2013-02-22 17:40:00,27.8,22.9,29.77,West,266,6.4,-999.0,80,0.00,,,0.00,SSEC-RIG,2013-02-22 23:40:00,
2013-02-22 17:45:00,27.7,22.9,29.77,West,267,7.7,-999.0,81,0.00,,,0.00,SSEC-RIG,2013-02-22 23:45:00,
2013-02-22 17:50:00,27.8,23.0,29.77,West,266,6.5,-999.0,81,0.00,,,0.00,SSEC-RIG,2013-02-22 23:50:00,
2013-02-22 18:00:00,27.7,23.1,29.78,WSW,257,6.5,-999.0,82,0.00,,,0.00,SSEC-RIG,2013-02-23 00:00:00,
2013-02-22 18:05:00,27.7,23.1,29.78,WSW,251,5.7,-999.0,82,0.00,,,0.00,SSEC-RIG,2013-02-23 00:05:00,
2013-02-22 18:10:00,27.6,23.1,29.78,WSW,244,5.8,-999.0,82,0.00,,,0.00,SSEC-RIG,2013-02-23 00:10:00,
2013-02-22 18:15:00,27.7,23.2,29.78,WSW,251,4.5,-999.0,82,0.00,,,0.00,SSEC-RIG,2013-02-23 00:15:00,
2013-02-22 18:25:00,27.4,22.9,29.78,WSW,255,7.1,-999.0,82,0.00,,,0.00,SSEC-RIG,2013-02-23 00:25:00,
2013-02-22 18:30:00,27.3,22.8,29.78,West,261,7.6,-999.0,82,0.00,,,0.00,SSEC-RIG,2013-02-23 00:30:00,
2013-02-22 18:35:00,27.4,22.8,29.78,WSW,258,6.0,-999.0,82,0.00,,,0.00,SSEC-RIG,2013-02-23 00:35:00,
2013-02-22 18:40:00,27.3,22.8,29.78,WSW,250,6.8,-999.0,82,0.00,,,0.00,SSEC-RIG,2013-02-23 00:40:00,
2013-02-22 18:45:00,27.2,22.7,29.78,WSW,250,8.1,-999.0,82,0.00,,,0.00,SSEC-RIG,2013-02-23 00:45:00,
2013-02-22 18:50:00,27.2,22.7,29.78,WSW,255,6.7,-999.0,82,0.00,,,0.00,SSEC-RIG,2013-02-23 00:50:00,
2013-02-22 18:55:00,27.1,22.7,29.78,WSW,254,7.8,-999.0,82,0.00,,,0.00,SSEC-RIG,2013-02-23 00:55:00,
2013-02-22 19:00:00,27.2,22.7,29.78,WSW,253,7.0,-999.0,82,0.00,,,0.00,SSEC-RIG,2013-02-23 01:00:00,
2013-02-22 19:05:00,27.1,22.7,29.78,WSW,249,7.5,-999.0,82,0.00,,,0.00,SSEC-RIG,2013-02-23 01:05:00,
2013-02-22 19:10:00,27.1,22.7,29.78,WSW,241,7.9,-999.0,82,0.00,,,0.00,SSEC-RIG,2013-02-23 01:10:00,
2013-02-22 19:15:00,27.1,22.8,29.78,WSW,243,6.6,-999.0,83,0.00,,,0.00,SSEC-RIG,2013-02-23 01:15:00,
2013-02-22 19:20:00,27.0,22.7,29.79,WSW,243,8.7,-999.0,83,0.00,,,0.00,SSEC-RIG,2013-02-23 01:20:00,
2013-02-22 19:30:00,26.9,22.7,29.79,WSW,244,9.3,-999.0,83,0.00,,,0.00,SSEC-RIG,2013-02-23 01:30:00,
2013-02-22 19:35:00,26.9,22.6,29.79,WSW,251,10.0,-999.0,83,0.00,,,0.00,SSEC-RIG,2013-02-23 01:35:00,
2013-02-22 19:40:00,26.8,22.5,29.79,WSW,254,12.2,-999.0,83,0.00,,,0.00,SSEC-RIG,2013-02-23 01:40:00,
2013-02-22 19:45:00,26.7,22.5,29.79,WSW,254,10.8,-999.0,83,0.00,,,0.00,SSEC-RIG,2013-02-23 01:45:00,
2013-02-22 19:50:00,26.7,22.6,29.79,WSW,250,10.7,-999.0,83,0.00,,,0.00,SSEC-RIG,2013-02-23 01:50:00,
2013-02-22 20:00:00,26.7,22.6,29.79,WSW,254,9.6,-999.0,83,0.00,,,0.00,SSEC-RIG,2013-02-23 02:00:00,
2013-02-22 20:05:00,26.6,22.6,29.79,WSW,255,9.8,-999.0,83,0.00,,,0.00,SSEC-RIG,2013-02-23 02:05:00,
2013-02-22 20:10:00,26.6,22.6,29.79,WSW,255,11.0,-999.0,83,0.00,,,0.00,SSEC-RIG,2013-02-23 02:10:00,
2013-02-22 20:15:00,26.6,22.7,29.79,WSW,254,9.9,-999.0,84,0.00,,,0.00,SSEC-RIG,2013-02-23 02:15:00,
2013-02-22 20:20:00,26.6,22.7,29.80,West,259,9.6,-999.0,84,0.00,,,0.00,SSEC-RIG,2013-02-23 02:20:00,
2013-02-22 20:25:00,26.7,22.8,29.80,West,259,7.4,-999.0,84,0.00,,,0.00,SSEC-RIG,2013-02-23 02:25:00,
2013-02-22 20:30:00,26.7,22.8,29.80,West,259,9.3,-999.0,84,0.00,,,0.00,SSEC-RIG,2013-02-23 02:30:00,
2013-02-22 20:40:00,26.7,22.8,29.80,West,259,8.9,-999.0,84,0.00,,,0.00,SSEC-RIG,2013-02-23 02:40:00,
2013-02-22 20:45:00,26.7,22.7,29.80,WSW,258,9.1,-999.0,84,0.00,,,0.00,SSEC-RIG,2013-02-23 02:45:00,
2013-02-22 20:50:00,26.7,22.7,29.80,WSW,257,8.4,-999.0,84,0.00,,,0.00,SSEC-RIG,2013-02-23 02:50:00,
2013-02-22 20:55:00,26.7,22.7,29.80,WSW,257,9.9,-999.0,84,0.00,,,0.00,SSEC-RIG,2013-02-23 02:55:00,
2013-02-22 21:00:00,26.6,22.7,29.80,WSW,256,9.6,-999.0,84,0.00,,,0.00,SSEC-RIG,2013-02-23 03:00:00,
2013-02-22 21:05:00,26.7,22.7,29.80,West,261,8.8,-999.0,84,0.00,,,0.00,SSEC-RIG,2013-02-23 03:05:00,
2013-02-22 21:15:00,26.7,22.7,29.80,West,264,7.3,-999.0,83,0.00,,,0.00,SSEC-RIG,2013-02-23 03:15:00,
2013-02-22 21:25:00,26.7,22.6,29.80,West,271,6.8,-999.0,83,0.00,,,0.00,SSEC-RIG,2013-02-23 03:25:00,
2013-02-22 21:30:00,26.7,22.4,29.80,West,272,7.6,-999.0,83,0.00,,,0.00,SSEC-RIG,2013-02-23 03:30:00,
2013-02-22 21:35:00,26.7,22.4,29.80,West,272,6.7,-999.0,82,0.00,,,0.00,SSEC-RIG,2013-02-23 03:35:00,
2013-02-22 21:40:00,26.7,22.1,29.80,West,275,9.3,-999.0,82,0.00,,,0.00,SSEC-RIG,2013-02-23 03:40:00,
2013-02-22 21:45:00,26.7,22.1,29.80,West,281,9.4,-999.0,81,0.00,,,0.00,SSEC-RIG,2013-02-23 03:45:00,
2013-02-22 21:55:00,26.6,21.6,29.79,WNW,283,11.3,-999.0,80,0.00,,,0.00,SSEC-RIG,2013-02-23 03:55:00,
2013-02-22 22:00:00,26.6,21.7,29.79,West,277,9.7,-999.0,80,0.00,,,0.00,SSEC-RIG,2013-02-23 04:00:00,
2013-02-22 22:05:00,26.6,21.7,29.80,West,278,8.8,-999.0,81,0.00,,,0.00,SSEC-RIG,2013-02-23 04:05:00,
2013-02-22 22:10:00,26.6,21.5,29.80,West,276,9.5,-999.0,80,0.00,,,0.00,SSEC-RIG,2013-02-23 04:10:00,
2013-02-22 22:20:00,26.5,21.1,29.80,West,278,11.1,-999.0,79,0.00,,,0.00,SSEC-RIG,2013-02-23 04:20:00,
2013-02-22 22:25:00,26.5,21.2,29.80,West,275,7.7,-999.0,79,0.00,,,0.00,SSEC-RIG,2013-02-23 04:25:00,
2013-02-22 22:30:00,26.5,20.8,29.80,WNW,283,10.5,-999.0,78,0.00,,,0.00,SSEC-RIG,2013-02-23 04:30:00,
2013-02-22 22:40:00,26.4,20.3,29.79,West,281,11.7,-999.0,76,0.00,,,0.00,SSEC-RIG,2013-02-23 04:40:00,
2013-02-22 22:45:00,26.5,20.2,29.80,WNW,287,9.0,-999.0,76,0.00,,,0.00,SSEC-RIG,2013-02-23 04:45:00,
2013-02-22 22:50:00,26.6,20.0,29.79,WNW,295,9.6,-999.0,75,0.00,,,0.00,SSEC-RIG,2013-02-23 04:50:00,
2013-02-22 22:55:00,26.7,19.6,29.79,WNW,289,11.5,-999.0,73,0.00,,,0.00,SSEC-RIG,2013-02-23 04:55:00,
2013-02-22 23:05:00,26.5,19.7,29.79,West,276,10.5,-999.0,74,0.00,,,0.00,SSEC-RIG,2013-02-23 05:05:00,
2013-02-22 23:15:00,26.3,20.0,29.79,West,269,7.4,-999.0,76,0.00,,,0.00,SSEC-RIG,2013-02-23 05:15:00,
2013-02-22 23:20:00,26.4,20.1,29.79,West,266,6.4,-999.0,76,0.00,,,0.00,SSEC-RIG,2013-02-23 05:20:00,
2013-02-22 23:25:00,26.3,20.1,29.79,West,259,8.6,-999.0,76,0.00,,,0.00,SSEC-RIG,2013-02-23 05:25:00,
2013-02-22 23:30:00,26.2,20.0,29.79,West,263,9.6,-999.0,76,0.00,,,0.00,SSEC-RIG,2013-02-23 05:30:00,
2013-02-22 23:35:00,26.2,20.1,29.79,WSW,257,9.0,-999.0,76,0.00,,,0.00,SSEC-RIG,2013-02-23 05:35:00,
2013-02-22 23:40:00,26.1,20.2,29.79,WSW,248,8.5,-999.0,77,0.00,,,0.00,SSEC-RIG,2013-02-23 05:40:00,
2013-02-22 23:50:00,25.9,20.4,29.79,WSW,254,10.4,-999.0,78,0.00,,,0.00,SSEC-RIG,2013-02-23 05:50:00,
2013-02-22 23:55:00,25.8,20.5,29.79,WSW,248,9.7,-999.0,79,0.00,,,0.00,SSEC-RIG,2013-02-23 05:55:00,